Time;durP1;ratioP1;P1;durP2;ratioP2;P2;SDS_P1;SDS_P2;PMS_P1;PMS_P2;Temp;Humidity;BMP_temperature;BMP_pressure;BME280_temperature;BME280_humidity;BME280_pressure;Samples;Min_cycle;Max_cycle;Signal;HPM_P1;HPM_P2
2023/08/28 00:00:38;;;;;;;2.58;0.68;;;16.40;99.90;;;;;;4990180;28;20037;-69
2023/08/28 00:03:04;;;;;;;4.30;1.25;;;16.30;99.90;;;;;;4991134;28;20169;-69
2023/08/28 00:05:31;;;;;;;2.30;0.98;;;16.30;99.90;;;;;;4989799;28;20085;-69
2023/08/28 00:07:58;;;;;;;1.65;0.68;;;16.20;99.90;;;;;;4990155;28;20081;-70
2023/08/28 00:10:24;;;;;;;1.73;0.70;;;15.80;99.90;;;;;;4992422;28;20418;-70
2023/08/28 00:12:51;;;;;;;2.08;1.10;;;15.80;99.90;;;;;;4977791;28;20030;-70
2023/08/28 00:15:17;;;;;;;1.40;0.70;;;15.70;99.90;;;;;;4994388;28;20037;-70
2023/08/28 00:17:43;;;;;;;1.33;0.55;;;15.70;99.90;;;;;;4995284;28;20041;-69
2023/08/28 00:20:09;;;;;;;1.35;0.60;;;15.70;99.90;;;;;;4994128;28;20376;-69
2023/08/28 00:22:38;;;;;;;3.55;0.77;;;15.70;99.90;;;;;;4994993;28;20034;-69
2023/08/28 00:25:07;;;;;;;8.15;0.75;;;15.70;99.90;;;;;;4992059;28;20573;-69
2023/08/28 00:27:33;;;;;;;1.40;0.45;;;15.70;99.90;;;;;;4995190;28;20030;-70
2023/08/28 00:29:59;;;;;;;0.60;0.50;;;15.70;99.90;;;;;;4992554;28;20478;-69
2023/08/28 00:32:26;;;;;;;1.35;0.65;;;15.60;99.90;;;;;;4994766;28;20038;-70
2023/08/28 00:34:53;;;;;;;1.77;0.47;;;15.50;99.90;;;;;;4992120;28;20442;-69
2023/08/28 00:37:19;;;;;;;0.70;0.50;;;15.40;99.90;;;;;;4993572;28;20026;-69
2023/08/28 00:39:45;;;;;;;1.27;0.77;;;15.30;99.90;;;;;;4994022;28;20506;-69
2023/08/28 00:42:11;;;;;;;0.98;0.50;;;15.30;99.90;;;;;;4993874;28;20568;-69
2023/08/28 00:44:37;;;;;;;1.02;0.73;;;15.40;99.90;;;;;;4994465;28;20362;-70
2023/08/28 00:47:03;;;;;;;0.77;0.60;;;15.40;99.90;;;;;;4992781;28;20061;-70
2023/08/28 00:49:30;;;;;;;3.30;0.93;;;15.30;99.90;;;;;;4993281;28;20144;-70
2023/08/28 00:51:57;;;;;;;9.43;0.73;;;15.40;99.90;;;;;;4992636;28;20034;-70
2023/08/28 00:54:23;;;;;;;2.67;1.40;;;15.30;99.90;;;;;;4976790;28;20034;-70
2023/08/28 00:56:49;;;;;;;0.85;0.63;;;15.40;99.90;;;;;;4992210;28;20402;-69
2023/08/28 00:59:16;;;;;;;0.40;0.40;;;15.30;99.90;;;;;;4993145;28;20041;-70
2023/08/28 01:01:43;;;;;;;1.88;1.23;;;15.20;99.90;;;;;;4975771;28;20031;-70
2023/08/28 01:04:09;;;;;;;1.60;0.65;;;15.20;99.90;;;;;;4992736;28;20033;-69
2023/08/28 01:07:14;;;;;;;1.90;0.90;;;15.20;99.90;;;;;;4994606;28;20026;-70
2023/08/28 01:09:51;;;;;;;0.80;0.50;;;15.20;99.90;;;;;;4996594;28;20034;-70
2023/08/28 01:12:27;;;;;;;0.73;0.50;;;15.20;99.90;;;;;;5000104;28;20030;-70
2023/08/28 01:15:24;;;;;;;0.85;0.40;;;15.20;99.90;;;;;;4993350;28;20383;-70
2023/08/28 01:17:58;;;;;;;1.15;0.60;;;15.00;99.90;;;;;;4993437;28;20047;-70
2023/08/28 01:20:27;;;;;;;1.17;0.50;;;14.90;99.90;;;;;;4992566;28;20026;-72
2023/08/28 01:23:21;;;;;;;2.17;0.50;;;14.90;99.90;;;;;;4991855;28;20483;-69
2023/08/28 01:25:48;;;;;;;0.43;0.43;;;14.70;99.90;;;;;;4990790;28;20483;-70
2023/08/28 01:28:14;;;;;;;2.55;0.60;;;14.80;99.90;;;;;;4992809;28;20023;-70
2023/08/28 01:30:40;;;;;;;0.70;0.43;;;14.80;99.90;;;;;;4992547;28;20057;-69
2023/08/28 01:33:05;;;;;;;2.10;0.60;;;14.70;99.90;;;;;;4976357;28;20026;-70
2023/08/28 01:35:32;;;;;;;5.93;0.50;;;14.60;99.90;;;;;;4992001;28;20039;-69
2023/08/28 01:38:17;;;;;;;4.30;0.73;;;14.50;99.90;;;;;;4992419;28;20034;-69
2023/08/28 01:41:08;;;;;;;0.52;0.38;;;14.60;99.90;;;;;;4997624;28;20065;-70
2023/08/28 01:43:42;;;;;;;1.48;0.63;;;14.60;99.90;;;;;;4987811;28;20026;-70
2023/08/28 01:46:09;;;;;;;1.85;0.52;;;14.40;99.90;;;;;;4991628;28;20034;-68
2023/08/28 01:48:40;;;;;;;1.33;0.40;;;14.50;99.90;;;;;;4992494;28;20026;-69
2023/08/28 01:51:06;;;;;;;0.80;0.40;;;14.40;99.90;;;;;;4991981;28;20078;-69
2023/08/28 01:53:32;;;;;;;1.25;0.55;;;14.40;99.90;;;;;;4991977;28;20411;-69
2023/08/28 01:56:15;;;;;;;0.63;0.40;;;14.40;99.90;;;;;;4956171;28;20039;-69
2023/08/28 01:58:46;;;;;;;7.80;0.75;;;14.30;99.90;;;;;;4976377;28;20105;-69
2023/08/28 02:01:12;;;;;;;1.42;0.75;;;14.30;99.90;;;;;;4991350;28;20128;-69
2023/08/28 02:03:38;;;;;;;3.05;0.50;;;14.30;99.90;;;;;;4991842;28;20109;-69
2023/08/28 02:06:06;;;;;;;2.28;1.05;;;14.30;99.90;;;;;;4991792;28;20077;-68
2023/08/28 02:08:31;;;;;;;2.45;0.70;;;14.40;99.90;;;;;;4992110;28;20050;-69
2023/08/28 02:10:57;;;;;;;1.30;0.60;;;14.40;99.90;;;;;;4991676;28;20073;-68
2023/08/28 02:13:23;;;;;;;2.50;0.60;;;14.40;99.90;;;;;;4992871;28;20037;-68
2023/08/28 02:15:48;;;;;;;1.23;0.55;;;14.40;99.90;;;;;;4996813;28;20502;-69
2023/08/28 02:18:14;;;;;;;1.15;0.80;;;14.40;99.90;;;;;;4991951;28;20101;-68
2023/08/28 02:20:40;;;;;;;3.28;1.42;;;14.30;99.90;;;;;;4992000;28;20046;-68
2023/08/28 02:23:06;;;;;;;4.70;0.65;;;14.30;99.90;;;;;;4991298;28;20037;-68
2023/08/28 02:25:32;;;;;;;1.13;0.55;;;14.30;99.90;;;;;;4990901;28;20081;-68
2023/08/28 02:27:58;;;;;;;1.00;0.60;;;14.20;99.90;;;;;;4992883;28;20034;-68
2023/08/28 02:30:24;;;;;;;0.88;0.45;;;14.20;99.90;;;;;;4990966;28;20042;-68
2023/08/28 02:32:50;;;;;;;1.30;0.70;;;14.00;99.90;;;;;;4991435;28;20037;-68
2023/08/28 02:35:15;;;;;;;2.45;0.80;;;13.90;99.90;;;;;;4973598;28;20049;-69
2023/08/28 02:37:41;;;;;;;3.60;0.82;;;13.90;99.90;;;;;;4990607;28;20034;-69
2023/08/28 02:40:10;;;;;;;1.27;0.80;;;13.90;99.90;;;;;;4987654;28;20121;-69
2023/08/28 02:42:37;;;;;;;2.05;1.15;;;14.00;99.90;;;;;;4974910;28;20031;-69
2023/08/28 02:45:04;;;;;;;2.65;0.85;;;14.00;99.90;;;;;;4990873;28;20039;-69
2023/08/28 02:47:30;;;;;;;0.60;0.52;;;14.10;99.90;;;;;;4990686;28;20534;-69
2023/08/28 02:49:55;;;;;;;0.57;0.50;;;14.20;99.90;;;;;;4990464;28;20105;-69
2023/08/28 02:52:21;;;;;;;1.30;0.55;;;14.10;99.90;;;;;;4991733;28;20081;-70
2023/08/28 02:54:47;;;;;;;4.97;0.80;;;14.10;99.90;;;;;;4991105;28;20029;-68
2023/08/28 02:57:13;;;;;;;1.77;0.82;;;14.10;99.90;;;;;;4991953;28;20029;-69
2023/08/28 02:59:39;;;;;;;1.25;0.93;;;14.10;99.90;;;;;;4992211;28;20125;-69
2023/08/28 03:02:05;;;;;;;1.10;0.60;;;14.20;99.90;;;;;;4990191;28;20057;-69
2023/08/28 03:04:31;;;;;;;2.30;0.95;;;14.20;99.90;;;;;;4990503;28;20391;-69
2023/08/28 03:06:56;;;;;;;1.38;0.80;;;14.10;99.90;;;;;;4990315;28;20042;-69
2023/08/28 03:09:22;;;;;;;1.02;0.57;;;14.10;99.90;;;;;;4991683;28;20022;-69
2023/08/28 03:11:48;;;;;;;2.50;0.82;;;14.20;99.90;;;;;;4990140;28;20068;-69
2023/08/28 03:14:14;;;;;;;0.88;0.63;;;14.10;99.90;;;;;;4992275;28;20026;-70
2023/08/28 03:16:39;;;;;;;6.18;0.65;;;14.00;99.90;;;;;;4993477;28;20030;-68
2023/08/28 03:19:05;;;;;;;0.95;0.45;;;14.00;99.90;;;;;;4991567;28;20088;-68
2023/08/28 03:21:33;;;;;;;2.65;0.55;;;14.10;99.90;;;;;;4989961;28;20088;-69
2023/08/28 03:23:59;;;;;;;1.05;0.50;;;14.20;99.90;;;;;;4989926;28;20026;-68
2023/08/28 03:26:26;;;;;;;3.75;1.02;;;14.20;99.90;;;;;;4989685;28;20049;-69
2023/08/28 03:28:52;;;;;;;2.20;0.90;;;14.20;99.90;;;;;;5001361;23;20043;-68
2023/08/28 03:31:17;;;;;;;1.30;0.55;;;14.30;99.90;;;;;;4987014;28;20042;-67
2023/08/28 03:33:43;;;;;;;2.08;0.85;;;14.40;99.90;;;;;;4989108;28;20042;-68
2023/08/28 03:36:09;;;;;;;1.13;0.57;;;14.40;99.90;;;;;;4990249;28;20038;-68
2023/08/28 03:38:34;;;;;;;0.95;0.75;;;14.40;99.90;;;;;;4990909;28;20038;-67
2023/08/28 03:41:00;;;;;;;3.10;0.65;;;14.40;99.90;;;;;;4988890;28;20486;-67
2023/08/28 03:43:26;;;;;;;1.33;0.70;;;14.50;99.90;;;;;;4991151;28;20054;-67
2023/08/28 03:45:51;;;;;;;0.80;0.55;;;14.50;99.90;;;;;;4988415;28;20049;-67
2023/08/28 03:48:17;;;;;;;0.82;0.52;;;14.40;99.90;;;;;;4970780;28;20043;-67
2023/08/28 03:50:44;;;;;;;0.80;0.43;;;14.50;99.90;;;;;;4986298;28;20027;-67
2023/08/28 03:53:10;;;;;;;0.90;0.60;;;14.30;99.90;;;;;;4990759;28;20042;-67
2023/08/28 03:55:37;;;;;;;1.45;0.70;;;14.40;99.90;;;;;;4988313;28;20037;-67
2023/08/28 03:58:04;;;;;;;1.40;0.70;;;14.40;99.90;;;;;;4991168;28;20026;-67
2023/08/28 04:00:32;;;;;;;0.93;0.55;;;14.40;99.90;;;;;;4989614;28;20034;-67
2023/08/28 04:02:58;;;;;;;1.48;0.68;;;14.40;99.90;;;;;;4989498;28;20105;-67
2023/08/28 04:05:26;;;;;;;1.60;0.70;;;14.20;99.90;;;;;;4989256;28;20490;-67
2023/08/28 04:07:52;;;;;;;4.13;0.65;;;14.10;99.90;;;;;;4989984;28;20042;-67
2023/08/28 04:10:20;;;;;;;0.85;0.43;;;14.20;99.90;;;;;;4989023;28;20023;-67
2023/08/28 04:12:45;;;;;;;0.77;0.73;;;14.10;99.90;;;;;;4989166;28;20031;-68
2023/08/28 04:15:11;;;;;;;4.15;0.98;;;14.10;99.90;;;;;;4994204;28;20041;-67
2023/08/28 04:17:38;;;;;;;4.32;0.75;;;14.20;99.90;;;;;;4990581;28;20030;-67
2023/08/28 04:20:15;;;;;;;1.90;0.82;;;14.10;99.90;;;;;;4988511;28;20085;-67
2023/08/28 04:22:45;;;;;;;0.73;0.50;;;14.20;99.90;;;;;;4990495;28;20078;-68
2023/08/28 04:25:12;;;;;;;0.57;0.45;;;14.30;99.90;;;;;;4971303;28;20401;-68
2023/08/28 04:27:39;;;;;;;0.93;0.65;;;14.20;99.90;;;;;;4989659;28;20549;-66
2023/08/28 04:30:08;;;;;;;2.72;0.75;;;14.30;99.90;;;;;;4988923;28;20130;-67
2023/08/28 04:32:34;;;;;;;8.50;4.20;;;14.30;99.90;;;;;;4989330;28;20105;-67
2023/08/28 04:35:00;;;;;;;16.27;4.93;;;14.20;99.90;;;;;;4989614;28;20034;-68
2023/08/28 04:37:27;;;;;;;11.15;4.35;;;14.30;99.90;;;;;;4989400;28;20106;-68
2023/08/28 04:39:54;;;;;;;1.65;1.35;;;14.40;99.90;;;;;;4988160;28;20409;-69
2023/08/28 04:42:20;;;;;;;7.80;0.40;;;14.40;99.90;;;;;;4989266;28;20651;-67
2023/08/28 04:44:46;;;;;;;2.63;1.00;;;14.40;99.90;;;;;;4982340;28;20035;-67
2023/08/28 04:47:13;;;;;;;1.95;0.93;;;14.40;99.90;;;;;;4988607;28;20062;-67
2023/08/28 04:49:39;;;;;;;4.22;1.05;;;14.40;99.90;;;;;;4988759;28;20030;-67
2023/08/28 04:52:05;;;;;;;8.48;0.75;;;14.40;99.90;;;;;;4990434;28;20117;-67
2023/08/28 04:54:33;;;;;;;1.65;0.85;;;14.40;99.90;;;;;;4989294;28;20073;-67
2023/08/28 04:56:59;;;;;;;2.20;1.10;;;14.30;99.90;;;;;;4990954;28;20022;-68
2023/08/28 04:59:25;;;;;;;1.77;0.95;;;14.30;99.90;;;;;;4992542;28;20044;-67
2023/08/28 05:01:50;;;;;;;1.42;0.75;;;14.20;99.90;;;;;;4995630;28;20493;-70
2023/08/28 05:04:16;;;;;;;1.40;0.70;;;14.20;99.90;;;;;;4992367;28;20049;-68
2023/08/28 05:06:42;;;;;;;2.78;0.98;;;14.20;99.90;;;;;;4994760;28;20390;-69
2023/08/28 05:09:08;;;;;;;3.92;1.05;;;14.30;99.90;;;;;;4975630;28;20502;-68
2023/08/28 05:11:36;;;;;;;1.67;1.08;;;14.30;99.90;;;;;;4994156;28;20034;-67
2023/08/28 05:14:02;;;;;;;1.75;0.77;;;14.40;99.90;;;;;;4991183;28;20046;-66
2023/08/28 05:16:28;;;;;;;2.47;1.27;;;14.40;99.90;;;;;;5000065;28;20474;-66
2023/08/28 05:18:53;;;;;;;2.92;0.80;;;14.40;99.90;;;;;;4991149;28;20042;-66
2023/08/28 05:21:19;;;;;;;2.28;0.90;;;14.50;99.90;;;;;;4976344;28;20037;-66
2023/08/28 05:23:45;;;;;;;1.50;0.68;;;14.50;99.90;;;;;;4991273;28;20043;-67
2023/08/28 05:26:11;;;;;;;1.63;1.10;;;14.50;99.90;;;;;;4992816;28;20030;-66
2023/08/28 05:28:38;;;;;;;4.68;0.95;;;14.50;99.90;;;;;;4992967;28;20030;-66
2023/08/28 05:31:05;;;;;;;1.95;0.85;;;14.50;99.90;;;;;;4993129;28;20086;-65
2023/08/28 05:33:38;;;;;;;1.70;0.75;;;14.60;99.90;;;;;;4993534;28;20402;-66
2023/08/28 05:36:04;;;;;;;3.10;0.90;;;14.60;99.90;;;;;;4993410;28;20049;-66
2023/08/28 05:38:30;;;;;;;1.52;0.80;;;14.60;99.90;;;;;;4993846;28;20026;-66
2023/08/28 05:40:56;;;;;;;1.58;1.00;;;14.40;99.90;;;;;;4991598;28;20023;-66
2023/08/28 05:43:22;;;;;;;1.40;0.55;;;14.50;99.90;;;;;;4993412;28;20465;-65
2023/08/28 05:45:48;;;;;;;1.27;0.73;;;14.60;99.90;;;;;;4991713;28;20474;-65
2023/08/28 05:48:13;;;;;;;1.98;0.57;;;14.60;99.90;;;;;;4993651;28;20030;-66
2023/08/28 05:50:43;;;;;;;2.72;0.60;;;14.70;99.90;;;;;;4990473;28;20026;-65
2023/08/28 05:53:09;;;;;;;4.88;1.08;;;14.80;99.90;;;;;;4993016;28;20030;-66
2023/08/28 05:55:34;;;;;;;8.93;2.05;;;14.90;99.90;;;;;;4990509;28;20048;-65
2023/08/28 05:58:00;;;;;;;1.08;0.65;;;15.00;99.90;;;;;;4993332;28;20064;-65
2023/08/28 06:00:26;;;;;;;2.75;1.00;;;15.00;99.90;;;;;;4989362;28;20026;-65
2023/08/28 06:02:52;;;;;;;5.88;0.63;;;15.10;99.90;;;;;;4975164;28;20034;-65
2023/08/28 06:05:18;;;;;;;0.40;0.32;;;15.10;99.90;;;;;;4989338;28;20026;-65
2023/08/28 06:07:44;;;;;;;1.92;0.98;;;15.10;99.90;;;;;;4981703;28;20035;-65
2023/08/28 06:10:16;;;;;;;0.93;0.63;;;15.10;99.90;;;;;;4987190;28;20032;-64
2023/08/28 06:12:42;;;;;;;0.85;0.60;;;15.10;99.90;;;;;;4987660;28;20121;-65
2023/08/28 06:15:09;;;;;;;0.52;0.50;;;15.10;99.90;;;;;;4991647;28;20101;-64
2023/08/28 06:17:35;;;;;;;0.60;0.40;;;15.20;99.90;;;;;;4988034;28;20031;-63
2023/08/28 06:20:00;;;;;;;2.28;0.95;;;15.10;99.90;;;;;;4991676;28;20041;-64
2023/08/28 06:22:27;;;;;;;1.65;0.60;;;15.20;99.90;;;;;;4987156;28;20057;-64
2023/08/28 06:24:52;;;;;;;0.75;0.55;;;15.10;99.90;;;;;;4987346;28;20110;-64
2023/08/28 06:27:18;;;;;;;1.48;0.80;;;15.20;99.90;;;;;;4992497;28;20105;-63
2023/08/28 06:29:44;;;;;;;1.17;0.65;;;15.20;99.90;;;;;;4988153;28;20474;-62
2023/08/28 06:32:11;;;;;;;1.92;0.52;;;15.20;99.90;;;;;;4986132;28;20092;-63
2023/08/28 06:34:37;;;;;;;0.95;0.52;;;15.10;99.90;;;;;;4989212;28;20042;-62
2023/08/28 06:37:02;;;;;;;3.90;0.65;;;15.20;99.90;;;;;;4986793;28;20030;-62
2023/08/28 06:39:28;;;;;;;2.42;0.77;;;15.20;99.90;;;;;;4989146;28;20541;-61
2023/08/28 06:41:54;;;;;;;1.80;0.65;;;15.20;99.90;;;;;;4991727;28;20045;-62
2023/08/28 06:44:19;;;;;;;1.20;0.60;;;15.20;99.90;;;;;;4989423;28;20110;-63
2023/08/28 06:46:45;;;;;;;3.78;0.63;;;15.30;99.90;;;;;;4992112;28;20031;-74
2023/08/28 06:49:11;;;;;;;0.95;0.63;;;15.30;99.90;;;;;;4987410;28;20035;-70
2023/08/28 06:51:37;;;;;;;2.05;0.50;;;15.30;99.90;;;;;;4990128;28;20479;-69
2023/08/28 06:54:02;;;;;;;0.98;0.55;;;15.40;99.90;;;;;;4989877;28;20045;-69
2023/08/28 06:56:29;;;;;;;0.98;0.52;;;15.50;99.90;;;;;;4988071;28;20117;-70
2023/08/28 06:58:55;;;;;;;1.75;0.60;;;15.50;99.90;;;;;;4987602;28;20634;-71
2023/08/28 07:01:22;;;;;;;1.27;0.68;;;15.50;99.90;;;;;;4991783;28;20030;-72
2023/08/28 07:03:48;;;;;;;2.47;0.60;;;15.50;99.90;;;;;;4989181;28;20042;-72
2023/08/28 07:06:13;;;;;;;1.10;0.73;;;15.40;99.90;;;;;;4990649;28;20034;-72
2023/08/28 07:08:39;;;;;;;7.32;0.85;;;15.40;99.90;;;;;;4984872;28;20030;-67
2023/08/28 07:11:05;;;;;;;1.48;0.70;;;15.50;99.90;;;;;;4990645;28;20081;-70
2023/08/28 07:13:31;;;;;;;1.40;0.65;;;15.60;99.90;;;;;;4984560;28;20554;-71
2023/08/28 07:15:59;;;;;;;1.38;0.68;;;15.60;99.90;;;;;;4990518;28;20100;-73
2023/08/28 07:18:25;;;;;;;8.70;1.13;;;15.60;99.90;;;;;;4989788;28;20097;-71
2023/08/28 07:20:51;;;;;;;16.05;1.92;;;15.60;99.90;;;;;;4990024;28;20030;-70
2023/08/28 07:23:17;;;;;;;1.33;0.73;;;15.60;99.90;;;;;;4989396;28;20573;-70
2023/08/28 07:25:44;;;;;;;5.35;1.23;;;15.60;99.90;;;;;;4991398;28;20049;-70
2023/08/28 07:28:10;;;;;;;8.50;2.85;;;15.60;99.90;;;;;;4989664;28;20081;-70
2023/08/28 07:30:36;;;;;;;1.77;0.98;;;15.70;99.90;;;;;;4990931;28;20030;-70
2023/08/28 07:33:02;;;;;;;2.72;0.85;;;15.70;99.90;;;;;;4990114;28;20560;-70
2023/08/28 07:35:34;;;;;;;8.95;1.30;;;15.80;99.90;;;;;;4990153;28;20042;-70
2023/08/28 07:38:03;;;;;;;7.30;0.73;;;15.90;99.90;;;;;;4984477;28;20034;-71
2023/08/28 07:40:29;;;;;;;4.15;1.35;;;16.00;99.90;;;;;;4991253;28;20058;-70
2023/08/28 07:42:56;;;;;;;0.60;0.60;;;16.00;99.90;;;;;;4984051;28;20110;-70
2023/08/28 07:45:21;;;;;;;2.10;1.00;;;16.00;99.90;;;;;;4989842;28;20077;-70
2023/08/28 07:47:47;;;;;;;2.75;0.98;;;16.00;99.90;;;;;;4984753;28;20038;-70
2023/08/28 07:50:13;;;;;;;9.27;1.17;;;16.10;99.90;;;;;;4990489;28;20058;-70
2023/08/28 07:52:38;;;;;;;4.93;1.95;;;16.10;99.90;;;;;;4984779;28;20045;-69
2023/08/28 07:55:05;;;;;;;1.50;0.73;;;16.10;99.90;;;;;;4989190;28;20027;-70
2023/08/28 07:57:33;;;;;;;3.22;0.90;;;16.10;99.90;;;;;;4986703;28;20061;-69
2023/08/28 07:59:59;;;;;;;5.25;0.80;;;16.30;99.90;;;;;;4988392;28;20443;-71
2023/08/28 08:02:24;;;;;;;1.67;1.15;;;16.30;99.90;;;;;;4987517;28;20114;-70
2023/08/28 08:04:50;;;;;;;1.70;0.95;;;16.40;99.90;;;;;;4989797;28;20041;-74
2023/08/28 08:07:16;;;;;;;6.43;0.88;;;16.40;99.90;;;;;;5003948;28;20030;-69
2023/08/28 08:09:41;;;;;;;1.20;0.60;;;16.50;99.90;;;;;;4989666;28;20026;-64
2023/08/28 08:12:08;;;;;;;1.13;0.70;;;16.50;99.90;;;;;;4989868;28;20034;-65
2023/08/28 08:14:33;;;;;;;1.40;0.47;;;16.70;99.90;;;;;;4984689;28;20438;-64
2023/08/28 08:16:59;;;;;;;0.63;0.60;;;16.80;99.90;;;;;;4990976;28;20034;-65
2023/08/28 08:19:25;;;;;;;1.40;0.88;;;16.80;99.90;;;;;;4983962;28;20050;-64
2023/08/28 08:21:50;;;;;;;1.58;0.57;;;16.80;99.90;;;;;;4990575;28;20080;-65
2023/08/28 08:24:17;;;;;;;4.85;0.73;;;16.90;99.90;;;;;;4983692;28;20049;-64
2023/08/28 08:26:43;;;;;;;3.17;1.35;;;16.90;99.90;;;;;;4990708;28;20490;-65
2023/08/28 08:29:08;;;;;;;1.58;0.70;;;16.90;99.90;;;;;;4988799;28;20030;-65
2023/08/28 08:31:34;;;;;;;1.65;0.65;;;16.90;99.90;;;;;;4993075;28;20048;-65
2023/08/28 08:34:00;;;;;;;1.50;0.47;;;16.80;99.90;;;;;;4993419;28;20465;-65
2023/08/28 08:36:25;;;;;;;2.40;1.30;;;16.80;99.90;;;;;;4992286;28;20042;-66
2023/08/28 08:38:51;;;;;;;3.90;0.88;;;16.90;99.90;;;;;;4992467;28;20112;-66
2023/08/28 08:41:17;;;;;;;1.55;0.80;;;16.80;99.90;;;;;;4994398;28;20034;-64
2023/08/28 08:43:43;;;;;;;1.15;0.63;;;16.80;99.90;;;;;;4987280;28;20042;-65
2023/08/28 08:46:08;;;;;;;3.80;0.50;;;16.80;99.90;;;;;;4992438;28;20042;-65
2023/08/28 08:48:36;;;;;;;1.67;0.90;;;16.90;99.90;;;;;;4993270;28;20498;-65
2023/08/28 08:51:07;;;;;;;1.15;0.52;;;16.90;99.90;;;;;;4994141;28;20122;-65
2023/08/28 08:54:00;;;;;;;3.85;0.93;;;17.00;99.90;;;;;;4987197;28;20038;-65
2023/08/28 08:56:31;;;;;;;3.90;0.98;;;16.90;99.90;;;;;;4986200;28;20031;-65
2023/08/28 08:58:58;;;;;;;0.63;0.45;;;16.90;99.90;;;;;;4987039;28;20034;-65
2023/08/28 09:01:26;;;;;;;1.17;0.52;;;16.90;99.90;;;;;;4994082;28;20070;-65
2023/08/28 09:03:52;;;;;;;1.42;0.63;;;16.90;99.90;;;;;;4992983;28;20046;-65
2023/08/28 09:06:18;;;;;;;4.43;1.00;;;16.90;99.90;;;;;;4986138;28;20026;-64
2023/08/28 09:08:46;;;;;;;0.63;0.52;;;16.80;99.90;;;;;;4992383;28;20069;-64
2023/08/28 09:11:11;;;;;;;3.15;1.27;;;16.90;99.90;;;;;;4992735;28;20033;-65
2023/08/28 09:13:41;;;;;;;2.13;0.68;;;16.90;99.90;;;;;;4986828;28;20030;-65
2023/08/28 09:16:07;;;;;;;0.57;0.45;;;17.00;99.90;;;;;;4993734;28;20031;-65
2023/08/28 09:18:33;;;;;;;1.33;0.60;;;16.90;99.90;;;;;;4986646;28;20027;-66
2023/08/28 09:21:11;;;;;;;1.90;0.90;;;17.10;99.90;;;;;;4993937;28;20337;-66
2023/08/28 09:23:47;;;;;;;1.60;0.68;;;17.10;99.90;;;;;;4986622;28;20045;-66
2023/08/28 09:26:20;;;;;;;1.52;0.63;;;17.20;99.90;;;;;;4993649;28;20061;-65
2023/08/28 09:29:00;;;;;;;3.85;0.85;;;17.20;99.90;;;;;;4991875;28;20042;-66
2023/08/28 09:31:32;;;;;;;1.63;0.65;;;17.20;99.90;;;;;;4986674;28;20395;-65
2023/08/28 09:33:58;;;;;;;1.52;0.63;;;17.20;99.90;;;;;;4986331;28;20101;-66
2023/08/28 09:36:25;;;;;;;0.93;0.47;;;17.20;99.90;;;;;;4993639;28;20121;-65
2023/08/28 09:38:51;;;;;;;1.30;0.82;;;17.30;99.90;;;;;;4986611;28;20034;-65
2023/08/28 09:41:17;;;;;;;1.48;0.60;;;17.20;99.90;;;;;;4993093;28;20080;-65
2023/08/28 09:43:43;;;;;;;1.65;0.60;;;17.30;99.90;;;;;;5001961;23;20030;-64
2023/08/28 09:46:09;;;;;;;1.13;0.55;;;17.50;99.90;;;;;;4986405;28;20110;-64
2023/08/28 09:48:35;;;;;;;1.08;0.60;;;17.70;99.90;;;;;;4990993;28;20049;-63
2023/08/28 09:51:03;;;;;;;0.80;0.68;;;17.50;99.90;;;;;;4991102;28;20057;-64
2023/08/28 09:53:30;;;;;;;1.45;0.47;;;17.60;99.90;;;;;;4992838;28;20026;-64
2023/08/28 09:55:57;;;;;;;3.47;0.90;;;17.80;99.90;;;;;;4992954;28;20037;-64
2023/08/28 09:58:29;;;;;;;3.60;0.60;;;17.80;99.90;;;;;;4991957;28;20034;-64
2023/08/28 10:00:56;;;;;;;1.02;0.63;;;18.20;99.90;;;;;;4988019;28;20545;-65
2023/08/28 10:03:25;;;;;;;2.50;0.80;;;18.50;99.90;;;;;;4991311;28;20444;-65
2023/08/28 10:05:52;;;;;;;2.25;0.93;;;18.70;99.90;;;;;;4991245;28;20018;-65
2023/08/28 10:08:19;;;;;;;1.23;0.82;;;18.70;99.90;;;;;;4990278;28;20048;-64
2023/08/28 10:10:50;;;;;;;2.17;0.65;;;18.80;99.90;;;;;;5003139;28;20033;-66
2023/08/28 10:13:21;;;;;;;1.10;0.60;;;18.90;99.90;;;;;;4991353;28;20031;-66
2023/08/28 10:16:10;;;;;;;1.77;0.85;;;19.00;99.90;;;;;;4984922;28;20085;-65
2023/08/28 10:18:53;;;;;;;1.80;0.80;;;18.90;99.90;;;;;;4990809;28;20030;-68
2023/08/28 10:21:20;;;;;;;2.10;0.80;;;19.10;99.90;;;;;;4992898;28;20036;-76
2023/08/28 10:23:49;;;;;;;4.13;1.27;;;19.10;99.90;;;;;;4990034;28;20065;-66
2023/08/28 10:26:15;;;;;;;5.38;1.30;;;19.20;99.90;;;;;;4998676;28;20036;-66
2023/08/28 10:28:42;;;;;;;3.75;1.15;;;19.40;99.90;;;;;;4991832;28;20586;-65
2023/08/28 10:31:10;;;;;;;1.95;0.90;;;19.10;99.90;;;;;;4991117;28;20038;-65
2023/08/28 10:33:36;;;;;;;6.40;1.00;;;19.30;99.90;;;;;;4989871;28;20537;-65
2023/08/28 10:36:07;;;;;;;1.48;0.70;;;19.60;99.90;;;;;;4974853;28;20046;-64
2023/08/28 10:38:32;;;;;;;2.60;0.80;;;19.90;99.90;;;;;;4990772;28;20038;-64
2023/08/28 10:40:59;;;;;;;2.70;0.77;;;19.70;99.90;;;;;;4992384;28;20121;-63
2023/08/28 10:43:26;;;;;;;2.40;0.98;;;19.10;99.90;;;;;;4987820;28;20046;-64
2023/08/28 10:45:56;;;;;;;1.75;0.98;;;19.20;99.90;;;;;;4990504;28;20379;-64
2023/08/28 10:48:22;;;;;;;7.63;1.88;;;19.40;99.90;;;;;;4980302;28;20415;-64
2023/08/28 10:50:48;;;;;;;6.45;1.05;;;19.90;99.90;;;;;;4990485;28;20026;-66
2023/08/28 10:53:15;;;;;;;1.67;0.98;;;20.20;99.90;;;;;;4985541;28;20034;-67
2023/08/28 10:56:00;;;;;;;2.45;1.10;;;20.00;99.90;;;;;;4991440;28;20106;-66
2023/08/28 10:58:31;;;;;;;1.20;0.90;;;20.10;99.90;;;;;;4987872;28;20034;-66
2023/08/28 11:01:17;;;;;;;2.60;0.98;;;20.30;99.90;;;;;;4992016;28;20077;-65
2023/08/28 11:03:52;;;;;;;3.08;1.20;;;20.30;99.90;;;;;;4987570;28;20042;-66
2023/08/28 11:06:36;;;;;;;1.70;1.00;;;20.40;99.90;;;;;;4955404;28;20027;-66
2023/08/28 11:09:29;;;;;;;2.08;1.10;;;20.60;99.90;;;;;;4983737;28;20441;-67
2023/08/28 11:11:57;;;;;;;1.55;0.90;;;20.60;99.90;;;;;;4989022;28;20454;-67
2023/08/28 11:14:24;;;;;;;2.30;1.00;;;19.90;99.90;;;;;;4988655;28;20070;-66
2023/08/28 11:17:07;;;;;;;3.42;1.23;;;19.90;99.90;;;;;;4988229;28;20550;-67
2023/08/28 11:19:55;;;;;;;2.60;1.48;;;20.10;99.90;;;;;;4985223;28;20682;-67
2023/08/28 11:22:37;;;;;;;1.27;0.65;;;20.10;99.90;;;;;;4983835;28;20018;-67
2023/08/28 11:25:33;;;;;;;2.75;0.95;;;20.50;99.90;;;;;;4986190;28;20027;-67
2023/08/28 11:28:00;;;;;;;1.70;0.80;;;20.60;99.90;;;;;;4991543;28;20474;-67
2023/08/28 11:30:26;;;;;;;1.65;0.80;;;20.70;99.90;;;;;;4985785;28;20033;-67
2023/08/28 11:32:55;;;;;;;1.85;1.00;;;20.90;99.90;;;;;;4990151;28;20038;-68
2023/08/28 11:35:22;;;;;;;2.00;1.00;;;21.00;99.90;;;;;;4989636;28;20026;-67
2023/08/28 11:37:54;;;;;;;1.27;0.80;;;20.90;99.90;;;;;;4974126;28;20034;-66
2023/08/28 11:40:24;;;;;;;1.55;0.85;;;21.20;99.90;;;;;;4995898;28;20041;-66
2023/08/28 11:43:08;;;;;;;1.48;0.73;;;21.50;99.90;;;;;;4998048;28;20062;-66
2023/08/28 11:45:34;;;;;;;1.55;0.70;;;21.50;99.90;;;;;;4993214;28;20036;-66
2023/08/28 11:48:03;;;;;;;1.35;0.65;;;21.50;99.90;;;;;;4991209;28;20023;-66
2023/08/28 11:50:29;;;;;;;1.92;0.80;;;21.80;99.90;;;;;;4973613;28;20026;-64
2023/08/28 11:52:55;;;;;;;0.77;0.50;;;21.80;99.50;;;;;;4989386;28;20033;-64
2023/08/28 11:55:21;;;;;;;0.85;0.50;;;21.70;99.90;;;;;;4985567;28;20038;-66
2023/08/28 11:57:50;;;;;;;1.77;0.50;;;21.80;99.30;;;;;;4991209;28;20463;-65
2023/08/28 12:00:17;;;;;;;0.90;0.40;;;22.00;98.40;;;;;;4972668;28;20128;-65
2023/08/28 12:02:46;;;;;;;0.73;0.60;;;22.30;98.50;;;;;;4983838;28;20043;-65
2023/08/28 12:05:18;;;;;;;2.00;0.45;;;22.70;98.50;;;;;;4987394;28;20616;-65
2023/08/28 12:07:45;;;;;;;1.48;0.57;;;22.80;97.80;;;;;;4995367;28;20046;-65
2023/08/28 12:10:15;;;;;;;1.17;0.50;;;22.50;97.10;;;;;;4989792;28;20108;-65
2023/08/28 12:12:41;;;;;;;0.47;0.37;;;22.70;97.80;;;;;;4977066;28;20030;-65
2023/08/28 12:15:10;;;;;;;0.30;0.22;;;22.60;96.70;;;;;;4993903;28;20189;-67
2023/08/28 12:17:38;;;;;;;1.98;0.40;;;22.70;96.90;;;;;;4977434;28;20038;-64
2023/08/28 12:20:06;;;;;;;4.32;0.63;;;22.50;97.00;;;;;;4994105;28;20026;-64
2023/08/28 12:22:34;;;;;;;1.17;0.63;;;22.10;97.10;;;;;;4990646;28;20035;-63
2023/08/28 12:25:00;;;;;;;0.93;0.43;;;21.80;98.20;;;;;;4989591;28;20025;-64
2023/08/28 12:27:27;;;;;;;0.88;0.40;;;22.00;97.10;;;;;;4993615;28;20030;-64
2023/08/28 12:29:54;;;;;;;1.60;0.43;;;22.00;95.30;;;;;;4993653;28;20609;-64
2023/08/28 12:32:20;;;;;;;0.75;0.40;;;22.00;95.00;;;;;;4994806;28;20038;-65
2023/08/28 12:34:48;;;;;;;1.83;0.68;;;21.90;94.80;;;;;;4990242;28;20039;-64
2023/08/28 12:37:15;;;;;;;2.15;1.00;;;22.00;96.40;;;;;;4994639;28;20164;-65
2023/08/28 12:39:50;;;;;;;0.40;0.32;;;22.10;97.40;;;;;;4993977;28;20112;-64
2023/08/28 12:42:20;;;;;;;0.70;0.40;;;22.30;97.10;;;;;;4993877;28;20022;-64
2023/08/28 12:44:46;;;;;;;;;;;22.10;96.00;;;;;;4992845;28;20066;-64
2023/08/28 12:47:20;;;;;;;0.43;0.32;;;22.10;96.30;;;;;;4994098;28;19960;-64
2023/08/28 12:49:46;;;;;;;1.10;0.60;;;22.00;96.20;;;;;;4993286;28;20031;-64
2023/08/28 12:52:12;;;;;;;0.35;0.22;;;21.80;96.40;;;;;;4997235;28;20038;-65